Time;durP1;ratioP1;P1;durP2;ratioP2;P2;SDS_P1;SDS_P2;PMS_P1;PMS_P2;Temp;Humidity;BMP_temperature;BMP_pressure;BME280_temperature;BME280_humidity;BME280_pressure;Samples;Min_cycle;Max_cycle;Signal;HPM_P1;HPM_P2
2022/02/28 00:02:01;;;;;;;;;;;;;;;21.28;42.80;103184.53;5044037;28;4599;-64
2022/02/28 00:04:27;;;;;;;;;;;;;;;21.28;42.71;103187.41;5042575;28;5161;-63
2022/02/28 00:06:54;;;;;;;;;;;;;;;21.29;42.76;103188.91;5046419;28;4205;-63
2022/02/28 00:09:20;;;;;;;;;;;;;;;21.29;42.72;103183.16;5044313;28;4165;-63
2022/02/28 00:11:46;;;;;;;;;;;;;;;21.29;42.66;103183.16;5042581;28;5248;-63
2022/02/28 00:14:13;;;;;;;;;;;;;;;21.28;42.80;103181.63;5043054;28;4020;-65
2022/02/28 00:16:40;;;;;;;;;;;;;;;21.28;42.70;103187.41;5044909;28;3979;-63
2022/02/28 00:19:06;;;;;;;;;;;;;;;21.27;42.78;103179.34;5043230;28;4476;-63
2022/02/28 00:21:33;;;;;;;;;;;;;;;21.27;42.68;103177.22;5044013;28;4027;-64
2022/02/28 00:23:59;;;;;;;;;;;;;;;21.28;42.63;103175.88;5045683;28;4302;-63
2022/02/28 00:26:26;;;;;;;;;;;;;;;21.28;42.72;103175.09;5042443;28;4168;-63
2022/02/28 00:28:52;;;;;;;;;;;;;;;21.26;42.63;103172.81;5041218;28;4269;-64
2022/02/28 00:31:18;;;;;;;;;;;;;;;21.26;42.79;103172.06;5038439;28;5277;-63
2022/02/28 00:33:45;;;;;;;;;;;;;;;21.25;42.76;103177.06;5041895;28;4126;-64
2022/02/28 00:36:11;;;;;;;;;;;;;;;21.26;42.79;103184.34;5044755;28;6231;-64
2022/02/28 00:38:37;;;;;;;;;;;;;;;21.26;42.63;103178.59;5043411;28;4216;-63
2022/02/28 00:41:04;;;;;;;;;;;;;;;21.26;42.60;103181.47;5043190;28;4595;-63
2022/02/28 00:43:31;;;;;;;;;;;;;;;21.28;42.74;103196.06;5042857;28;4166;-64
2022/02/28 00:45:57;;;;;;;;;;;;;;;21.28;42.63;103189.50;5036081;28;4223;-64
2022/02/28 00:48:24;;;;;;;;;;;;;;;21.27;42.59;103185.88;5043285;28;4319;-64
2022/02/28 00:50:50;;;;;;;;;;;;;;;21.29;42.68;103191.78;5044417;28;4153;-63
2022/02/28 00:53:17;;;;;;;;;;;;;;;21.28;42.66;103184.53;5037692;28;4118;-64
2022/02/28 00:55:45;;;;;;;;;;;;;;;21.28;42.62;103178.75;5044215;28;5726;-64
2022/02/28 00:58:11;;;;;;;;;;;;;;;21.29;42.65;103182.41;5044123;28;4203;-63
2022/02/28 01:00:38;;;;;;;;;;;;;;;21.28;42.61;103187.41;5039112;28;4133;-64
2022/02/28 01:03:04;;;;;;;;;;;;;;;21.27;42.66;103177.22;5041851;28;4191;-63
2022/02/28 01:05:32;;;;;;;;;;;;;;;21.28;42.71;103175.09;5036702;28;4254;-63
2022/02/28 01:07:58;;;;;;;;;;;;;;;21.27;42.56;103174.34;5036877;28;5624;-63
2022/02/28 01:10:25;;;;;;;;;;;;;;;21.27;42.59;103171.47;5038950;28;4519;-63
2022/02/28 01:12:51;;;;;;;;;;;;;;;21.27;42.72;103174.34;5036023;28;4181;-64
2022/02/28 01:15:18;;;;;;;;;;;;;;;21.26;42.58;103167.06;5044681;28;4180;-64
2022/02/28 01:17:47;;;;;;;;;;;;;;;21.25;42.62;103171.28;5044359;28;4294;-64
2022/02/28 01:20:13;;;;;;;;;;;;;;;21.24;42.72;103169.78;5041464;28;4222;-63
2022/02/28 01:22:39;;;;;;;;;;;;;;;21.24;42.66;103161.13;5043614;28;4314;-64
2022/02/28 01:25:07;;;;;;;;;;;;;;;21.25;42.64;103154.00;5041206;28;4082;-63
2022/02/28 01:27:34;;;;;;;;;;;;;;;21.25;42.56;103165.53;5044862;28;4487;-64
2022/02/28 01:30:00;;;;;;;;;;;;;;;21.26;42.65;103158.41;5042535;28;4191;-63
2022/02/28 01:32:26;;;;;;;;;;;;;;;21.27;42.52;103162.06;5043559;28;4217;-64
2022/02/28 01:34:53;;;;;;;;;;;;;;;21.27;42.62;103151.28;5041108;28;5738;-64
2022/02/28 01:37:19;;;;;;;;;;;;;;;21.29;42.47;103159.34;5044230;28;4133;-63
2022/02/28 01:39:46;;;;;;;;;;;;;;;21.29;42.47;103154.31;5036906;28;4227;-63
2022/02/28 01:42:12;;;;;;;;;;;;;;;21.29;42.49;103151.44;5043545;28;5266;-64
2022/02/28 01:44:39;;;;;;;;;;;;;;;21.29;42.58;103147.81;5041514;28;4688;-63
2022/02/28 01:47:06;;;;;;;;;;;;;;;21.28;42.58;103147.06;5043064;28;3972;-64
2022/02/28 01:49:33;;;;;;;;;;;;;;;21.29;42.48;103147.81;5039248;28;4172;-63
2022/02/28 01:51:59;;;;;;;;;;;;;;;21.27;42.58;103150.53;5043462;28;3990;-63
2022/02/28 01:54:26;;;;;;;;;;;;;;;21.28;42.63;103152.03;5041856;28;5240;-64
2022/02/28 01:56:52;;;;;;;;;;;;;;;21.27;42.55;103151.28;5043638;28;4147;-63
2022/02/28 01:59:19;;;;;;;;;;;;;;;21.27;42.49;103157.03;5042241;28;4090;-64
2022/02/28 02:01:46;;;;;;;;;;;;;;;21.27;42.60;103151.28;5040866;28;3994;-63
2022/02/28 02:04:13;;;;;;;;;;;;;;;21.25;42.50;103142.47;5039682;28;4162;-64
2022/02/28 02:06:39;;;;;;;;;;;;;;;21.26;42.46;103149.78;5054396;28;4162;-63
2022/02/28 02:09:06;;;;;;;;;;;;;;;21.25;42.42;103151.13;5041957;28;4022;-64
2022/02/28 02:11:34;;;;;;;;;;;;;;;21.26;42.62;103149.03;5042131;28;5634;-64
2022/02/28 02:14:03;;;;;;;;;;;;;;;21.26;42.50;103149.78;5034750;28;4105;-64
2022/02/28 02:16:30;;;;;;;;;;;;;;;21.26;42.63;103146.91;5041656;28;6574;-64
2022/02/28 02:18:56;;;;;;;;;;;;;;;21.27;42.43;103145.53;5034269;28;5517;-64
2022/02/28 02:21:23;;;;;;;;;;;;;;;21.28;42.41;103140.50;5062472;28;4148;-64
2022/02/28 02:23:49;;;;;;;;;;;;;;;21.27;42.42;103139.00;5044983;28;5220;-66
2022/02/28 02:26:15;;;;;;;;;;;;;;;21.29;42.52;103147.81;5045978;28;4283;-65
2022/02/28 02:28:42;;;;;;;;;;;;;;;21.27;42.48;103145.53;5040286;28;4362;-65
2022/02/28 02:31:09;;;;;;;;;;;;;;;21.29;42.47;103150.69;5040452;28;5147;-64
2022/02/28 02:33:38;;;;;;;;;;;;;;;21.28;42.47;103146.28;5045245;28;4202;-64
2022/02/28 02:36:05;;;;;;;;;;;;;;;21.28;42.52;103152.81;5038601;28;4297;-64
2022/02/28 02:38:34;;;;;;;;;;;;;;;21.27;42.53;103150.53;5041834;28;5266;-64
2022/02/28 02:41:01;;;;;;;;;;;;;;;21.27;42.52;103151.28;5040902;28;4136;-65
2022/02/28 02:43:27;;;;;;;;;;;;;;;21.27;42.38;103150.53;5045421;28;4199;-64
2022/02/28 02:45:54;;;;;;;;;;;;;;;21.27;42.43;103145.53;5044855;28;4209;-64
2022/02/28 02:48:21;;;;;;;;;;;;;;;21.29;42.48;103144.94;5042644;28;4186;-64
2022/02/28 02:50:56;;;;;;;;;;;;;;;21.28;42.36;103140.50;5045623;28;5162;-64
2022/02/28 02:53:22;;;;;;;;;;;;;;;21.27;42.50;103127.47;5044215;28;4065;-64
2022/02/28 02:55:49;;;;;;;;;;;;;;;21.27;42.39;103128.22;5038985;28;4999;-64
2022/02/28 02:58:16;;;;;;;;;;;;;;;21.25;42.52;103125.19;5047192;28;5379;-64
2022/02/28 03:00:45;;;;;;;;;;;;;;;21.26;42.47;103126.72;5037563;28;4476;-64
2022/02/28 03:03:17;;;;;;;;;;;;;;;21.28;42.40;103134.75;5044159;28;4263;-64
2022/02/28 03:05:43;;;;;;;;;;;;;;;21.26;42.39;103123.84;5038650;28;4173;-64
2022/02/28 03:08:10;;;;;;;;;;;;;;;21.27;42.45;103119.59;5046269;28;4293;-64
2022/02/28 03:10:36;;;;;;;;;;;;;;;21.27;42.40;103119.59;5043886;28;4131;-64
2022/02/28 03:13:03;;;;;;;;;;;;;;;21.28;42.32;103115.34;5044031;28;5370;-64
2022/02/28 03:15:30;;;;;;;;;;;;;;;21.29;42.45;103101.69;5042188;28;4272;-64
2022/02/28 03:17:58;;;;;;;;;;;;;;;21.29;42.45;103095.94;5045901;28;4124;-64
2022/02/28 03:20:24;;;;;;;;;;;;;;;21.28;42.36;103089.41;5043106;28;4202;-64
2022/02/28 03:22:52;;;;;;;;;;;;;;;21.28;42.43;103083.66;5060715;28;4944;-64
2022/02/28 03:25:19;;;;;;;;;;;;;;;21.28;42.40;103089.41;5063026;28;4124;-64
2022/02/28 03:27:54;;;;;;;;;;;;;;;21.28;42.54;103088.63;5044076;28;5205;-64
2022/02/28 03:30:20;;;;;;;;;;;;;;;21.27;42.32;103082.13;5059950;28;4415;-64
2022/02/28 03:32:46;;;;;;;;;;;;;;;21.27;42.43;103082.13;5043181;28;4207;-64
2022/02/28 03:35:13;;;;;;;;;;;;;;;21.26;42.37;103080.63;5045567;28;5574;-64
2022/02/28 03:37:40;;;;;;;;;;;;;;;21.25;42.49;103073.31;5042276;28;4118;-64
2022/02/28 03:40:09;;;;;;;;;;;;;;;21.26;42.54;103080.63;5043612;28;4229;-64
2022/02/28 03:42:36;;;;;;;;;;;;;;;21.25;42.32;103081.94;5037878;28;4959;-64
2022/02/28 03:45:03;;;;;;;;;;;;;;;21.24;42.56;103077.56;5041805;28;4187;-64
2022/02/28 03:47:31;;;;;;;;;;;;;;;21.25;42.42;103075.44;5059806;28;4142;-64
2022/02/28 03:50:17;;;;;;;;;;;;;;;21.21;42.40;103078.78;5043259;28;5186;-64
2022/02/28 03:52:44;;;;;;;;;;;;;;;21.26;42.32;103080.63;5045160;28;4518;-64
2022/02/28 03:55:20;;;;;;;;;;;;;;;21.27;42.32;103082.13;5046342;28;4103;-64
2022/02/28 03:57:47;;;;;;;;;;;;;;;21.28;42.49;103077.09;5045912;28;5240;-64
2022/02/28 04:00:14;;;;;;;;;;;;;;;21.28;42.36;103072.13;5044418;28;4273;-64
2022/02/28 04:02:41;;;;;;;;;;;;;;;21.29;42.44;103065.00;5038942;28;4154;-64
2022/02/28 04:05:08;;;;;;;;;;;;;;;21.30;42.31;103075.16;5045322;28;4558;-64
2022/02/28 04:07:37;;;;;;;;;;;;;;;21.31;42.27;103070.91;5041685;28;4178;-64
2022/02/28 04:10:03;;;;;;;;;;;;;;;21.32;42.26;103077.44;5061919;28;4318;-64
2022/02/28 04:12:31;;;;;;;;;;;;;;;21.32;42.36;103083.19;5036353;28;4164;-64
2022/02/28 04:14:57;;;;;;;;;;;;;;;21.31;42.31;103082.44;5037126;28;4248;-64
2022/02/28 04:17:23;;;;;;;;;;;;;;;21.32;42.24;103091.84;5043962;28;5629;-64
2022/02/28 04:19:50;;;;;;;;;;;;;;;21.31;42.25;103093.97;5044254;28;5599;-64
2022/02/28 04:22:16;;;;;;;;;;;;;;;21.30;42.29;103092.47;5040137;28;4090;-64
2022/02/28 04:24:44;;;;;;;;;;;;;;;21.32;42.50;103088.97;5060784;28;4161;-64
2022/02/28 04:27:11;;;;;;;;;;;;;;;21.31;42.31;103087.44;5044276;28;4254;-65
2022/02/28 04:29:38;;;;;;;;;;;;;;;21.30;42.26;103085.91;5042706;28;4182;-64
2022/02/28 04:32:10;;;;;;;;;;;;;;;21.30;42.40;103085.91;5043742;28;4133;-64
2022/02/28 04:34:45;;;;;;;;;;;;;;;21.29;42.29;103085.16;5041266;28;4993;-65
2022/02/28 04:37:11;;;;;;;;;;;;;;;21.29;42.39;103079.41;5042608;28;5476;-65
2022/02/28 04:39:37;;;;;;;;;;;;;;;21.30;42.37;103080.16;5040790;28;4182;-64
2022/02/28 04:42:04;;;;;;;;;;;;;;;21.31;42.30;103076.69;5043862;28;4219;-64
2022/02/28 04:44:32;;;;;;;;;;;;;;;21.32;42.24;103072.41;5041483;28;4260;-64
2022/02/28 04:47:01;;;;;;;;;;;;;;;21.32;42.24;103072.41;5040141;28;4200;-64
2022/02/28 04:49:48;;;;;;;;;;;;;;;21.33;42.20;103073.94;5059557;28;4542;-64
2022/02/28 04:52:15;;;;;;;;;;;;;;;21.36;42.35;103077.75;5041451;28;4483;-64
2022/02/28 04:54:41;;;;;;;;;;;;;;;21.36;42.23;103074.88;5043583;28;4095;-64
2022/02/28 04:57:08;;;;;;;;;;;;;;;21.37;42.31;103073.50;5044902;28;4200;-64
2022/02/28 04:59:34;;;;;;;;;;;;;;;21.37;42.28;103078.50;5041063;28;4106;-64
2022/02/28 05:02:02;;;;;;;;;;;;;;;21.36;42.20;103071.22;5040342;28;4472;-64
2022/02/28 05:04:49;;;;;;;;;;;;;;;21.34;42.36;103087.00;5039998;28;6590;-64
2022/02/28 05:07:16;;;;;;;;;;;;;;;21.34;42.29;103081.22;5037308;28;4230;-64
2022/02/28 05:09:43;;;;;;;;;;;;;;;21.34;42.26;103087.00;5036182;28;4085;-64
2022/02/28 05:12:09;;;;;;;;;;;;;;;21.34;42.20;103092.75;5040436;28;4036;-64
2022/02/28 05:14:36;;;;;;;;;;;;;;;21.33;42.32;103097.00;5040703;28;3981;-64
2022/02/28 05:17:03;;;;;;;;;;;;;;;21.34;42.33;103100.66;5041896;28;4239;-64
2022/02/28 05:19:32;;;;;;;;;;;;;;;21.33;42.19;103097.00;5059013;28;4213;-64
2022/02/28 05:22:02;;;;;;;;;;;;;;;21.33;42.35;103096.25;5039342;28;4256;-64
2022/02/28 05:24:31;;;;;;;;;;;;;;;21.33;42.28;103097.00;5038165;28;4152;-63
2022/02/28 05:27:00;;;;;;;;;;;;;;;21.34;42.22;103109.28;5041498;28;4170;-64
2022/02/28 05:29:27;;;;;;;;;;;;;;;21.34;42.24;103112.94;5043597;28;4092;-64
2022/02/28 05:31:54;;;;;;;;;;;;;;;21.36;42.30;103112.34;5035979;28;3998;-64
2022/02/28 05:34:44;;;;;;;;;;;;;;;21.37;42.33;103107.31;5035737;28;4333;-64
2022/02/28 05:37:11;;;;;;;;;;;;;;;21.38;42.19;103108.88;5037101;28;4081;-64
2022/02/28 05:39:54;;;;;;;;;;;;;;;21.42;42.40;103109.22;5035483;28;4149;-59
2022/02/28 05:42:25;;;;;;;;;;;;;;;21.29;43.09;103108.22;5040561;28;5178;-60
2022/02/28 05:44:54;;;;;;;;;;;;;;;21.25;44.24;103121.53;5041417;28;5566;-59
2022/02/28 05:47:20;;;;;;;;;;;;;;;21.21;43.44;103113.34;5035723;28;4577;-59
2022/02/28 05:49:49;;;;;;;;;;;;;;;21.19;44.52;103113.19;5037959;28;4284;-58
2022/02/28 05:52:16;;;;;;;;;;;;;;;21.21;44.19;103109.69;5032426;28;4225;-60
2022/02/28 05:54:42;;;;;;;;;;;;;;;21.24;44.76;103117.91;5039194;28;4025;-61
2022/02/28 05:57:09;;;;;;;;;;;;;;;21.12;43.83;103117.72;5038481;28;4227;-63
2022/02/28 05:59:35;;;;;;;;;;;;;;;20.05;37.96;103125.59;5031212;28;4423;-62
2022/02/28 06:02:02;;;;;;;;;;;;;;;20.05;38.81;103119.09;5039069;28;5276;-62
2022/02/28 06:04:28;;;;;;;;;;;;;;;20.47;38.57;103118.97;5044890;28;4197;-62
2022/02/28 06:06:55;;;;;;;;;;;;;;;20.68;39.60;103120.66;5045078;28;4295;-61
2022/02/28 06:09:21;;;;;;;;;;;;;;;20.76;39.79;103109.81;5044455;28;4170;-61
2022/02/28 06:11:49;;;;;;;;;;;;;;;20.83;40.41;103113.94;5044289;28;5206;-62
2022/02/28 06:14:16;;;;;;;;;;;;;;;20.86;41.08;103125.00;5044246;28;4262;-60
2022/02/28 06:16:47;;;;;;;;;;;;;;;20.86;41.62;103113.47;5044514;28;4018;-60
2022/02/28 06:19:16;;;;;;;;;;;;;;;20.88;41.83;103119.41;5048586;28;5857;-59
2022/02/28 06:21:42;;;;;;;;;;;;;;;20.93;43.69;103112.59;5042496;28;4143;-62
2022/02/28 06:24:09;;;;;;;;;;;;;;;20.87;43.63;103111.38;5043761;28;4364;-61
2022/02/28 06:26:35;;;;;;;;;;;;;;;20.79;43.16;103111.47;5044068;28;4228;-60
2022/02/28 06:29:02;;;;;;;;;;;;;;;20.76;42.78;103118.44;5041801;28;4093;-62
2022/02/28 06:31:28;;;;;;;;;;;;;;;20.42;41.84;103122.88;5042071;28;4291;-62
2022/02/28 06:33:55;;;;;;;;;;;;;;;20.63;42.43;103118.81;5037383;28;4232;-66
2022/02/28 06:36:22;;;;;;;;;;;;;;;20.68;42.07;103112.78;5042610;28;4086;-67
2022/02/28 06:38:48;;;;;;;;;;;;;;;20.78;41.99;103115.72;5044744;28;5502;-65
2022/02/28 06:41:14;;;;;;;;;;;;;;;20.79;41.47;103114.34;5044260;28;4305;-66
2022/02/28 06:43:41;;;;;;;;;;;;;;;20.83;41.62;103108.94;5034600;28;4150;-63
2022/02/28 06:46:07;;;;;;;;;;;;;;;20.87;41.13;103120.78;5039491;28;4190;-64
2022/02/28 06:48:34;;;;;;;;;;;;;;;20.89;40.91;103118.06;5041151;28;4012;-62
2022/02/28 06:51:00;;;;;;;;;;;;;;;20.89;40.53;103123.03;5041803;28;5069;-64
2022/02/28 06:53:27;;;;;;;;;;;;;;;20.83;40.29;103125.44;5035837;28;4320;-65
2022/02/28 06:55:54;;;;;;;;;;;;;;;20.87;40.10;103125.78;5044343;28;5658;-64
2022/02/28 06:58:23;;;;;;;;;;;;;;;20.84;39.76;103121.94;5045111;28;4200;-65
2022/02/28 07:00:50;;;;;;;;;;;;;;;20.82;39.57;103129.66;5055815;28;5987;-65
2022/02/28 07:03:24;;;;;;;;;;;;;;;20.80;39.08;103133.16;5039011;28;4190;-65
2022/02/28 07:05:52;;;;;;;;;;;;;;;20.79;38.63;103137.38;5043891;28;4112;-65
2022/02/28 07:08:19;;;;;;;;;;;;;;;20.81;38.62;103151.19;5044306;28;4724;-65
2022/02/28 07:10:45;;;;;;;;;;;;;;;20.80;38.69;103146.78;5046980;28;4355;-65
2022/02/28 07:13:11;;;;;;;;;;;;;;;20.86;38.62;103161.69;5041397;28;4505;-65
2022/02/28 07:15:41;;;;;;;;;;;;;;;20.89;39.20;103152.63;5043259;28;4599;-63
2022/02/28 07:18:07;;;;;;;;;;;;;;;21.04;39.36;103162.41;5045136;28;4043;-66
2022/02/28 07:20:34;;;;;;;;;;;;;;;21.06;39.45;103160.44;5044611;28;4159;-65
2022/02/28 07:23:00;;;;;;;;;;;;;;;21.29;38.87;103165.09;5043570;28;4159;-64
2022/02/28 07:25:26;;;;;;;;;;;;;;;21.06;37.09;103171.22;5046129;28;4119;-64
2022/02/28 07:27:53;;;;;;;;;;;;;;;21.00;35.03;103156.31;5046878;28;4657;-65
2022/02/28 07:30:19;;;;;;;;;;;;;;;21.16;35.61;103160.47;5047889;28;4130;-63
2022/02/28 07:32:45;;;;;;;;;;;;;;;21.19;35.93;103156.41;5034923;28;4423;-63
2022/02/28 07:35:12;;;;;;;;;;;;;;;21.28;36.13;103161.47;5044896;28;5980;-65
2022/02/28 07:37:38;;;;;;;;;;;;;;;21.41;35.85;103168.22;5043635;28;4552;-66
2022/02/28 07:40:05;;;;;;;;;;;;;;;21.18;35.99;103175.06;5043410;28;4117;-64
2022/02/28 07:42:31;;;;;;;;;;;;;;;20.93;36.55;103178.84;5040659;28;5268;-64
2022/02/28 07:44:58;;;;;;;;;;;;;;;20.88;36.21;103179.88;5043830;28;4143;-64
2022/02/28 07:47:24;;;;;;;;;;;;;;;21.11;35.47;103184.56;5045451;28;4514;-64
2022/02/28 07:49:50;;;;;;;;;;;;;;;21.21;35.50;103171.00;5042569;28;4361;-63
2022/02/28 07:52:18;;;;;;;;;;;;;;;20.63;33.62;103179.25;5041177;28;4412;-63
2022/02/28 07:54:44;;;;;;;;;;;;;;;20.71;33.77;103189.34;5039195;28;4505;-63
2022/02/28 07:57:11;;;;;;;;;;;;;;;20.82;33.66;103190.94;5043241;28;5349;-62
2022/02/28 07:59:37;;;;;;;;;;;;;;;20.89;33.91;103192.94;5045409;28;4634;-62
2022/02/28 08:02:04;;;;;;;;;;;;;;;20.96;33.81;103196.31;5041325;28;4408;-62
2022/02/28 08:04:30;;;;;;;;;;;;;;;20.98;33.88;103199.34;5040616;28;6690;-62
2022/02/28 08:06:56;;;;;;;;;;;;;;;21.01;33.75;103192.41;5042829;28;4197;-65
2022/02/28 08:09:24;;;;;;;;;;;;;;;21.04;33.61;103191.22;5044432;28;4276;-65
2022/02/28 08:11:51;;;;;;;;;;;;;;;21.04;33.65;103197.72;5039909;28;5427;-65
2022/02/28 08:14:17;;;;;;;;;;;;;;;20.97;33.49;103192.06;5042332;28;4260;-65
2022/02/28 08:16:43;;;;;;;;;;;;;;;20.91;33.35;103196.00;5042478;28;4770;-64
2022/02/28 08:19:10;;;;;;;;;;;;;;;20.92;33.66;103197.50;5043699;28;4304;-64
2022/02/28 08:21:36;;;;;;;;;;;;;;;20.98;33.53;103203.00;5041281;28;4336;-65
2022/02/28 08:24:03;;;;;;;;;;;;;;;20.71;35.03;103200.09;5040445;28;4190;-65
2022/02/28 08:26:29;;;;;;;;;;;;;;;21.21;35.65;103194.03;5035939;28;5430;-64
2022/02/28 08:28:55;;;;;;;;;;;;;;;21.53;35.06;103198.00;5046143;28;4426;-63
2022/02/28 08:31:22;;;;;;;;;;;;;;;21.64;35.36;103194.53;5042059;28;4581;-64
2022/02/28 08:33:48;;;;;;;;;;;;;;;21.59;35.32;103198.47;5035322;28;5199;-63
2022/02/28 08:36:14;;;;;;;;;;;;;;;21.74;35.45;103206.88;5035003;28;5222;-63
2022/02/28 08:38:41;;;;;;;;;;;;;;;21.85;35.70;103204.78;5038224;28;4490;-63
2022/02/28 08:41:07;;;;;;;;;;;;;;;21.91;35.92;103202.38;5043776;28;5553;-63
2022/02/28 08:43:33;;;;;;;;;;;;;;;21.98;35.99;103209.38;5040164;28;5485;-63
2022/02/28 08:46:01;;;;;;;;;;;;;;;22.00;36.22;103213.16;5040732;28;4376;-62
2022/02/28 08:48:27;;;;;;;;;;;;;;;22.03;36.17;103200.41;5038544;28;4259;-62
2022/02/28 08:50:54;;;;;;;;;;;;;;;22.02;36.66;103198.16;5044393;28;4381;-62
2022/02/28 08:53:20;;;;;;;;;;;;;;;22.09;36.71;103203.78;5043005;28;5357;-63
2022/02/28 08:55:47;;;;;;;;;;;;;;;22.11;36.97;103201.03;5041904;28;4561;-62
2022/02/28 08:58:13;;;;;;;;;;;;;;;22.11;37.22;103186.63;5044044;28;4636;-62
2022/02/28 09:00:39;;;;;;;;;;;;;;;22.11;36.93;103195.28;5040625;28;4385;-62
2022/02/28 09:03:07;;;;;;;;;;;;;;;22.03;37.30;103194.63;5040291;28;4150;-60
2022/02/28 09:05:34;;;;;;;;;;;;;;;22.13;37.06;103195.44;5044426;28;5544;-60
2022/02/28 09:08:00;;;;;;;;;;;;;;;22.17;36.86;103192.84;5043656;28;6252;-61
2022/02/28 09:10:26;;;;;;;;;;;;;;;22.18;37.12;103193.59;5044336;28;5094;-61
2022/02/28 09:12:53;;;;;;;;;;;;;;;22.20;37.15;103199.53;5041285;28;4567;-61
2022/02/28 09:15:19;;;;;;;;;;;;;;;22.21;37.16;103197.41;5045400;28;4148;-61
2022/02/28 09:17:46;;;;;;;;;;;;;;;22.21;37.46;103191.63;5041711;28;5631;-61
2022/02/28 09:20:13;;;;;;;;;;;;;;;22.25;37.30;103201.38;5042639;28;4294;-61
2022/02/28 09:22:40;;;;;;;;;;;;;;;22.20;37.03;103198.78;5042330;28;4109;-61
2022/02/28 09:25:07;;;;;;;;;;;;;;;22.27;37.39;103200.78;5041762;28;5869;-62
2022/02/28 09:27:33;;;;;;;;;;;;;;;21.82;35.96;103197.34;5034065;28;5268;-63
2022/02/28 09:30:14;;;;;;;;;;;;;;;21.93;36.25;103209.06;5047274;28;4126;-61
2022/02/28 09:32:47;;;;;;;;;;;;;;;21.99;36.58;103199.34;5044078;28;4929;-61
2022/02/28 09:35:13;;;;;;;;;;;;;;;22.08;36.62;103207.25;5046213;28;4593;-68
2022/02/28 09:37:40;;;;;;;;;;;;;;;22.15;36.41;103198.47;5041237;28;4546;-63
2022/02/28 09:40:06;;;;;;;;;;;;;;;22.20;36.82;103213.97;5040650;28;4086;-65
2022/02/28 09:42:35;;;;;;;;;;;;;;;22.27;36.80;103203.69;5043297;28;4155;-62
2022/02/28 09:45:20;;;;;;;;;;;;;;;22.27;36.83;103207.31;5042006;28;5518;-62
2022/02/28 09:48:06;;;;;;;;;;;;;;;22.25;36.99;103204.28;5035828;28;4268;-61
2022/02/28 09:50:51;;;;;;;;;;;;;;;22.30;37.11;103208.22;5036569;28;4096;-62
2022/02/28 09:53:36;;;;;;;;;;;;;;;22.35;37.01;103207.16;5040318;28;4259;-63
2022/02/28 09:56:27;;;;;;;;;;;;;;;22.25;36.96;103217.97;5034873;28;4508;-62
2022/02/28 09:58:56;;;;;;;;;;;;;;;22.15;37.44;103207.13;5039919;28;4108;-62
2022/02/28 10:01:43;;;;;;;;;;;;;;;22.22;37.33;103207.59;5032363;28;4208;-63
2022/02/28 10:04:10;;;;;;;;;;;;;;;22.24;37.09;103202.00;5059064;28;4223;-63
2022/02/28 10:06:38;;;;;;;;;;;;;;;22.28;37.40;103208.81;5037781;28;4184;-63
2022/02/28 10:09:07;;;;;;;;;;;;;;;22.42;37.45;103202.63;5043803;28;4125;-63
2022/02/28 10:11:35;;;;;;;;;;;;;;;22.41;37.14;103212.66;5042778;28;5233;-61
2022/02/28 10:14:02;;;;;;;;;;;;;;;22.43;37.37;103213.56;5041643;28;5044;-63
2022/02/28 10:16:28;;;;;;;;;;;;;;;22.45;37.07;103212.94;5043153;28;4147;-62
2022/02/28 10:18:57;;;;;;;;;;;;;;;22.42;37.03;103217.81;5045431;28;4205;-62
2022/02/28 10:21:40;;;;;;;;;;;;;;;22.41;37.37;103218.44;5043943;28;4553;-63
2022/02/28 10:24:07;;;;;;;;;;;;;;;22.41;37.03;103215.53;5044926;28;4127;-62
2022/02/28 10:26:57;;;;;;;;;;;;;;;22.40;36.98;103216.88;5038765;28;4134;-61
2022/02/28 10:29:42;;;;;;;;;;;;;;;22.42;36.98;103217.81;5045845;28;4229;-63
2022/02/28 10:32:47;;;;;;;;;;;;;;;22.47;36.74;103213.88;5040674;28;4203;-64
2022/02/28 10:38:43;;;;;;;;;;;;;;;22.45;36.96;103210.84;5048347;28;5342;-63
2022/02/28 10:41:20;;;;;;;;;;;;;;;22.46;36.74;103203.69;5046225;28;4214;-60
2022/02/28 10:43:47;;;;;;;;;;;;;;;22.50;36.77;103212.66;5042045;28;4114;-60
2022/02/28 10:46:17;;;;;;;;;;;;;;;22.49;37.00;103198.81;5043810;28;4126;-60
2022/02/28 10:49:02;;;;;;;;;;;;;;;22.49;36.86;103196.69;5044291;28;4171;-60
2022/02/28 10:51:29;;;;;;;;;;;;;;;22.50;37.19;103198.22;5042818;28;4272;-60
2022/02/28 10:54:13;;;;;;;;;;;;;;;22.63;37.21;103184.66;5042547;28;4231;-64
2022/02/28 10:56:43;;;;;;;;;;;;;;;22.77;36.91;103200.19;5045140;28;4483;-65
2022/02/28 10:59:09;;;;;;;;;;;;;;;22.28;32.07;103197.28;5045541;28;4109;-62
2022/02/28 11:01:36;;;;;;;;;;;;;;;21.97;32.13;103191.31;5043520;28;4035;-60
2022/02/28 11:04:04;;;;;;;;;;;;;;;22.04;32.08;103196.19;5043020;28;4067;-63
2022/02/28 11:06:30;;;;;;;;;;;;;;;22.08;31.73;103198.59;5043015;28;4141;-63
2022/02/28 11:08:57;;;;;;;;;;;;;;;22.12;32.40;103196.78;5047533;28;4206;-61
2022/02/28 11:11:23;;;;;;;;;;;;;;;22.04;32.22;103193.28;5044431;28;4661;-61
2022/02/28 11:13:50;;;;;;;;;;;;;;;22.09;32.52;103195.13;5040105;28;4035;-60
2022/02/28 11:16:16;;;;;;;;;;;;;;;22.04;32.56;103192.53;5042595;28;3959;-62
2022/02/28 11:18:43;;;;;;;;;;;;;;;22.02;32.73;103186.59;5045617;28;4093;-62
2022/02/28 11:21:09;;;;;;;;;;;;;;;21.90;32.93;103180.66;5042473;28;4022;-61
2022/02/28 11:23:39;;;;;;;;;;;;;;;21.93;33.22;103180.19;5034481;28;5334;-59
2022/02/28 11:26:05;;;;;;;;;;;;;;;21.82;34.01;103175.00;5044230;28;4271;-60
2022/02/28 11:28:32;;;;;;;;;;;;;;;21.83;33.87;103172.88;5044330;28;4553;-60
2022/02/28 11:31:02;;;;;;;;;;;;;;;21.71;33.94;103170.56;5042063;28;4514;-61
2022/02/28 11:33:28;;;;;;;;;;;;;;;21.69;33.85;103156.03;5037865;28;4026;-63
2022/02/28 11:35:55;;;;;;;;;;;;;;;21.62;33.67;103165.53;5039648;28;4156;-66
2022/02/28 11:38:24;;;;;;;;;;;;;;;21.70;34.44;103162.56;5039529;28;4154;-67
2022/02/28 11:40:51;;;;;;;;;;;;;;;21.70;34.24;103169.06;5043491;28;4079;-67
2022/02/28 11:43:18;;;;;;;;;;;;;;;21.71;34.95;103170.56;5033736;28;4209;-63
2022/02/28 11:45:49;;;;;;;;;;;;;;;21.67;35.14;103163.72;5043484;28;4055;-67
2022/02/28 11:48:26;;;;;;;;;;;;;;;21.61;35.21;103161.16;5038659;28;4077;-66
2022/02/28 11:50:54;;;;;;;;;;;;;;;21.56;35.19;103159.31;5034984;28;4043;-67
2022/02/28 11:53:33;;;;;;;;;;;;;;;21.53;35.37;103160.50;5031845;28;3997;-67
2022/02/28 11:55:59;;;;;;;;;;;;;;;21.43;34.88;103156.84;5036070;28;5090;-67
2022/02/28 11:58:26;;;;;;;;;;;;;;;21.47;34.56;103154.28;5039932;28;4393;-67
2022/02/28 12:01:06;;;;;;;;;;;;;;;21.54;34.38;103153.41;5042319;28;5679;-68
2022/02/28 12:03:33;;;;;;;;;;;;;;;21.54;34.98;103150.50;5039456;28;4385;-67
2022/02/28 12:05:59;;;;;;;;;;;;;;;21.56;35.34;103153.56;5040853;28;4055;-67
2022/02/28 12:08:38;;;;;;;;;;;;;;;21.62;35.61;103156.13;5045399;28;4554;-67
2022/02/28 12:11:20;;;;;;;;;;;;;;;21.52;36.16;103153.22;5039952;28;4571;-65
2022/02/28 12:14:02;;;;;;;;;;;;;;;21.60;36.33;103141.56;5038887;28;4106;-65
2022/02/28 12:19:29;;;;;;;;;;;;;;;21.43;34.40;103139.53;5036217;28;4420;-67
2022/02/28 12:21:59;;;;;;;;;;;;;;;21.28;33.49;103135.53;5040303;28;4527;-67
2022/02/28 12:24:44;;;;;;;;;;;;;;;21.36;34.31;103134.66;5044490;28;4354;-67
2022/02/28 12:27:16;;;;;;;;;;;;;;;21.43;34.80;103123.00;5044007;28;4024;-67
2022/02/28 12:29:42;;;;;;;;;;;;;;;21.46;35.69;103121.03;5042058;28;4386;-67
2022/02/28 12:32:09;;;;;;;;;;;;;;;21.49;35.90;103120.59;5044174;28;4578;-67
2022/02/28 12:34:35;;;;;;;;;;;;;;;21.49;36.13;103120.59;5044666;28;5432;-67
2022/02/28 12:37:01;;;;;;;;;;;;;;;21.50;36.33;103124.25;5044563;28;4553;-67
2022/02/28 12:39:28;;;;;;;;;;;;;;;21.54;36.42;103121.69;5044647;28;4555;-67
2022/02/28 12:41:56;;;;;;;;;;;;;;;21.54;36.28;103121.69;5045571;28;5310;-67
2022/02/28 12:44:22;;;;;;;;;;;;;;;21.57;36.41;103122.59;5044665;28;4444;-67
2022/02/28 12:46:53;;;;;;;;;;;;;;;21.58;36.55;103119.13;5043344;28;6042;-67
2022/02/28 12:49:21;;;;;;;;;;;;;;;21.58;36.50;103116.22;5043066;28;4529;-67
2022/02/28 12:51:48;;;;;;;;;;;;;;;21.59;36.72;103122.75;5043054;28;4607;-67
2022/02/28 12:54:16;;;;;;;;;;;;;;;21.59;36.77;103119.88;5045452;28;4028;-66
2022/02/28 12:56:43;;;;;;;;;;;;;;;21.59;36.88;103111.97;5043967;28;4674;-67
2022/02/28 12:59:09;;;;;;;;;;;;;;;21.61;36.72;103111.38;5042560;28;4627;-67
2022/02/28 13:01:36;;;;;;;;;;;;;;;21.61;36.72;103109.25;5042586;28;5275;-67